METAR Reports From Nearby Airports

 

KLUD - Decatur, Texas, USA
Distance from Wildwood: ESE 5mi, 8km
Updated: Sep 30, 2022 5:55am
NOT Current
Clear
Clear
 Wind from ESE
Wind: ESE 7 mph , 11 km/h
Temperature: 59°F , 15°C
Dew Point: 45°F , 7°C
Humidity: 59%
Barometer: 30.13 inHg , 1020.3 hPa
Clouds: Clear
Visibility: 10 miles , 16 km
2022/09/30 10:55 KLUD 301055Z AUTO 12006KT 10SM CLR 15/07 A3013 RMK AO2 T01470068
KXBP - Bridgeport, Texas, USA
Distance from Wildwood: WSW 11mi, 18km
Updated: Oct 05, 2022 11:55pm
Clear
Clear
 Wind from calm
Wind: Calm
Temperature: 59°F , 15°C
Dew Point: 46°F , 8°C
Humidity: 63%
Barometer: 30.15 inHg , 1021 hPa
Clouds: Clear
Visibility: 10 miles , 16 km
2022/10/06 04:55 KXBP 060455Z AUTO 00000KT 10SM CLR 15/08 A3015 RMK AO2 T01540079
 
K0F2 - Bowie, Texas, USA
Distance from Wildwood: NNW 24mi, 39km
Updated: Oct 05, 2022 11:55pm
Clear
Clear
 Wind from calm
Wind: Calm
Temperature: 61°F , 16°C
Dew Point: 46°F , 8°C
Humidity: 59%
Barometer: 30.14 inHg , 1020.7 hPa
Clouds: Clear
Visibility: 10 miles , 16 km
2022/10/06 04:55 K0F2 060455Z AUTO 00000KT 10SM CLR 16/08 A3014 RMK AO2 T01560075
KDTO - Denton, Texas, USA
Distance from Wildwood: E 27mi, 44km
Updated: Oct 05, 2022 11:53pm
Clear
Clear
 Wind from calm
Wind: Calm
Temperature: 61°F , 16°C
Dew Point: 48°F , 9°C
Humidity: 63%
Barometer: 30.12 inHg , 1020 hPa
Clouds: Clear
Visibility: 10 miles , 16 km
2022/10/06 04:53 KDTO 060453Z AUTO 00000KT 10SM CLR 16/09 A3012 RMK AO2 SLP193 T01560094 $
 
KAFW - Ft Worth/Allianc, Texas, USA
Distance from Wildwood: SE 29mi, 46km
Updated: Oct 05, 2022 11:53pm
Few Clouds
Few Clouds
 Wind from calm
Wind: Calm
Temperature: 72°F , 22°C
Dew Point: 46°F , 8°C
Humidity: 41%
Barometer: 30.11 inHg , 1019.6 hPa
Clouds: Few Clouds
Visibility: 10 miles , 16 km
Cloud details: Few Clouds 25000 ft
2022/10/06 04:53 KAFW 060453Z 00000KT 10SM FEW250 22/08 A3011 RMK AO2 SLP183 T02170083
KFTW - Fort Worth, Texas, USA
Distance from Wildwood: SSE 34mi, 55km
Updated: Oct 05, 2022 11:53pm
Clear
Clear
 Wind from SE
Wind: SE 6 mph , 9 km/h
Temperature: 72°F , 22°C
Dew Point: 50°F , 10°C
Humidity: 47%
Barometer: 30.11 inHg , 1019.6 hPa
Clouds: Clear
Visibility: 10 miles , 16 km
2022/10/06 04:53 KFTW 060453Z 13005KT 10SM CLR 22/10 A3011 RMK AO2 SLP188 T02170100
 
KNFW - Fort Worth Nas, Texas, USA
Distance from Wildwood: SSE 36mi, 58km
Updated: Oct 05, 2022 11:52pm
Clear
Clear
 Wind from NW
Wind: NW 6 mph , 9 km/h
Barometer: 30.12 inHg , 1020 hPa
Clouds: Clear
Visibility: 10 miles , 16 km
2022/10/06 04:52 KNFW 060452Z AUTO 31005KT 10SM CLR A3012 RMK AO2 SLP184 TSNO $
KGLE - Gainesville, Texas, USA
Distance from Wildwood: NE 38mi, 61km
Updated: Oct 05, 2022 11:55pm
Clear
Clear
 Wind from calm
Wind: Calm
Temperature: 61°F , 16°C
Dew Point: 46°F , 8°C
Humidity: 59%
Barometer: 30.14 inHg , 1020.7 hPa
Clouds: Clear
Visibility: 10 miles , 16 km
2022/10/06 04:55 KGLE 060455Z AUTO 00000KT 10SM CLR 16/08 A3014 RMK AO2 T01600076
 
KMWL - Mineral Wells, Texas, USA
Distance from Wildwood: SW 41mi, 65km
Updated: Oct 05, 2022 11:53pm
Clear
Clear
 Wind from SSE
Wind: SSE 7 mph , 11 km/h
Temperature: 70°F , 21°C
Dew Point: 45°F , 7°C
Humidity: 40%
Barometer: 30.12 inHg , 1020 hPa
Clouds: Clear
Visibility: 10 miles , 16 km
2022/10/06 04:53 KMWL 060453Z AUTO 16006KT 10SM CLR 21/07 A3012 RMK AO2 SLP187 T02110067
KDFW - Dallas/Ft Worth, Texas, USA
Distance from Wildwood: ESE 45mi, 73km
Updated: Oct 05, 2022 11:53pm
Few Clouds
Few Clouds
 Wind from SSE
Wind: SSE 5 mph , 7 km/h
Temperature: 73°F , 23°C
Dew Point: 48°F , 9°C
Humidity: 41%
Barometer: 30.10 inHg , 1019.3 hPa
Clouds: Few Clouds
Visibility: 10 miles , 16 km
Cloud details: Few Clouds 25000 ft
2022/10/06 04:53 KDFW 060453Z 16004KT 10SM FEW250 23/09 A3010 RMK AO2 SLP185 T02280094